CFE011 EGLC-EDDF
Flight info
| Callsign | CFE011 |
|---|---|
| Flight time | 1h 7m |
| Altitude | 37000 |
| Route | SOQQA M87 UMTUM UL9 KONAN UL607 SPI T180 NIVNU T847 IMCOM IMCOM1A |
| Aircraft | E190/M-SDE3GILORVW/S |
Departure
| Time | 2026-05-05 20:13 |
|---|---|
| Airport | London City Airport (EGLC) |
Arrival
| Time | 2026-05-05 21:21 |
|---|---|
| Airport | Frankfurt Main Airport (EDDF) |
| Time | Latitude | Longitude | Altitude | Speed | Heading |
|---|---|---|---|---|---|
| 2026-05-05 20:06 | 51.50410 | 0.05248 | 23 ft | 0 kts | 327° |
| 2026-05-05 20:10 | 51.50410 | 0.05247 | 37 ft | 1 kts | 327° |
| 2026-05-05 20:11 | 51.50437 | 0.05210 | 27 ft | 10 kts | 309° |
| 2026-05-05 20:11 | 51.50455 | 0.05129 | 26 ft | 13 kts | 279° |
| 2026-05-05 20:11 | 51.50464 | 0.04953 | 26 ft | 17 kts | 273° |
| 2026-05-05 20:11 | 51.50471 | 0.04752 | 26 ft | 19 kts | 274° |
| 2026-05-05 20:12 | 51.50476 | 0.04536 | 26 ft | 17 kts | 272° |
| 2026-05-05 20:12 | 51.50514 | 0.04442 | 26 ft | 5 kts | 346° |
| 2026-05-05 20:12 | 51.50546 | 0.04465 | 26 ft | 5 kts | 52° |
| 2026-05-05 20:12 | 51.50552 | 0.04528 | 30 ft | 8 kts | 89° |
| 2026-05-05 20:13 | 51.50542 | 0.04930 | 23 ft | 69 kts | 94° |
| 2026-05-05 20:13 | 51.50512 | 0.06051 | 23 ft | 129 kts | 91° |
| 2026-05-05 20:13 | 51.50409 | 0.07610 | 453 ft | 136 kts | 94° |
| 2026-05-05 20:13 | 51.50289 | 0.09185 | 978 ft | 154 kts | 90° |
| 2026-05-05 20:14 | 51.50151 | 0.11015 | 1490 ft | 179 kts | 94° |
| 2026-05-05 20:14 | 51.50255 | 0.13215 | 1712 ft | 218 kts | 63° |
| 2026-05-05 20:14 | 51.51358 | 0.14868 | 2571 ft | 224 kts | 21° |
| 2026-05-05 20:14 | 51.52874 | 0.15389 | 2961 ft | 220 kts | 8° |
| 2026-05-05 20:15 | 51.54347 | 0.15653 | 3071 ft | 214 kts | 9° |
| 2026-05-05 20:15 | 51.55700 | 0.16439 | 3020 ft | 208 kts | 41° |
| 2026-05-05 20:15 | 51.56526 | 0.18382 | 3069 ft | 218 kts | 69° |
| 2026-05-05 20:15 | 51.56690 | 0.20799 | 3074 ft | 227 kts | 94° |
| 2026-05-05 20:16 | 51.56310 | 0.23279 | 3097 ft | 229 kts | 101° |
| 2026-05-05 20:16 | 51.56144 | 0.25771 | 3102 ft | 223 kts | 80° |
| 2026-05-05 20:16 | 51.56649 | 0.28068 | 3106 ft | 219 kts | 59° |
| 2026-05-05 20:16 | 51.57420 | 0.30215 | 2967 ft | 224 kts | 58° |
| 2026-05-05 20:17 | 51.58215 | 0.32329 | 3008 ft | 220 kts | 57° |
| 2026-05-05 20:17 | 51.59008 | 0.34434 | 3006 ft | 220 kts | 57° |
| 2026-05-05 20:17 | 51.59806 | 0.36539 | 3052 ft | 220 kts | 57° |
| 2026-05-05 20:17 | 51.60513 | 0.38778 | 3584 ft | 235 kts | 70° |
| 2026-05-05 20:18 | 51.60635 | 0.41534 | 4026 ft | 257 kts | 96° |
| 2026-05-05 20:18 | 51.60338 | 0.44398 | 4914 ft | 261 kts | 98° |
| 2026-05-05 20:18 | 51.60028 | 0.47292 | 5764 ft | 264 kts | 98° |
| 2026-05-05 20:18 | 51.59701 | 0.50247 | 6456 ft | 272 kts | 98° |
| 2026-05-05 20:19 | 51.59350 | 0.53282 | 7153 ft | 276 kts | 99° |
| 2026-05-05 20:19 | 51.58689 | 0.56183 | 7817 ft | 283 kts | 124° |
| 2026-05-05 20:19 | 51.57217 | 0.58244 | 8556 ft | 285 kts | 154° |
| 2026-05-05 20:19 | 51.55315 | 0.59132 | 9330 ft | 287 kts | 169° |
| 2026-05-05 20:20 | 51.54821 | 0.59280 | 9522 ft | 288 kts | 170° |
| 2026-05-05 20:20 | 51.52835 | 0.59834 | 10211 ft | 294 kts | 171° |
| 2026-05-05 20:20 | 51.50744 | 0.60368 | 10520 ft | 313 kts | 172° |
| 2026-05-05 20:20 | 51.48550 | 0.60874 | 11047 ft | 323 kts | 172° |
| 2026-05-05 20:21 | 51.46315 | 0.61390 | 11788 ft | 326 kts | 171° |
| 2026-05-05 20:21 | 51.45198 | 0.61648 | 12188 ft | 327 kts | 171° |
| 2026-05-05 20:21 | 51.42937 | 0.62150 | 13016 ft | 329 kts | 171° |
| 2026-05-05 20:21 | 51.40745 | 0.63103 | 13788 ft | 333 kts | 153° |
| 2026-05-05 20:22 | 51.38939 | 0.65387 | 14576 ft | 333 kts | 130° |
| 2026-05-05 20:22 | 51.37571 | 0.68009 | 15334 ft | 335 kts | 129° |
| 2026-05-05 20:22 | 51.36053 | 0.70979 | 16128 ft | 338 kts | 129° |
| 2026-05-05 20:22 | 51.34559 | 0.73911 | 16845 ft | 342 kts | 129° |
| 2026-05-05 20:23 | 51.33055 | 0.76885 | 17627 ft | 345 kts | 129° |
| 2026-05-05 20:23 | 51.31548 | 0.79870 | 18466 ft | 347 kts | 129° |
| 2026-05-05 20:23 | 51.30026 | 0.82903 | 19076 ft | 351 kts | 129° |
| 2026-05-05 20:23 | 51.28500 | 0.85961 | 19767 ft | 353 kts | 129° |
| 2026-05-05 20:24 | 51.26977 | 0.89019 | 20479 ft | 353 kts | 129° |
| 2026-05-05 20:24 | 51.25443 | 0.92119 | 21064 ft | 356 kts | 129° |
| 2026-05-05 20:24 | 51.23904 | 0.95243 | 21591 ft | 360 kts | 129° |
| 2026-05-05 20:24 | 51.22874 | 0.97341 | 21955 ft | 362 kts | 129° |
| 2026-05-05 20:25 | 51.21831 | 0.99476 | 22258 ft | 366 kts | 128° |
| 2026-05-05 20:25 | 51.20616 | 1.03062 | 22793 ft | 373 kts | 110° |
| 2026-05-05 20:25 | 51.19992 | 1.07109 | 23344 ft | 377 kts | 104° |
| 2026-05-05 20:25 | 51.19453 | 1.11216 | 23866 ft | 380 kts | 104° |
| 2026-05-05 20:26 | 51.18919 | 1.15365 | 24330 ft | 384 kts | 104° |
| 2026-05-05 20:26 | 51.18378 | 1.19561 | 24792 ft | 388 kts | 104° |
| 2026-05-05 20:26 | 51.17829 | 1.23796 | 25260 ft | 392 kts | 104° |
| 2026-05-05 20:26 | 51.17280 | 1.28015 | 25700 ft | 395 kts | 104° |
| 2026-05-05 20:27 | 51.16720 | 1.32318 | 26141 ft | 399 kts | 104° |
| 2026-05-05 20:27 | 51.16228 | 1.36696 | 26528 ft | 404 kts | 99° |
| 2026-05-05 20:27 | 51.15965 | 1.41182 | 26942 ft | 408 kts | 97° |
| 2026-05-05 20:27 | 51.15762 | 1.45709 | 27281 ft | 412 kts | 96° |
| 2026-05-05 20:28 | 51.15559 | 1.50277 | 27666 ft | 415 kts | 97° |
| 2026-05-05 20:28 | 51.15346 | 1.54876 | 28035 ft | 418 kts | 97° |
| 2026-05-05 20:28 | 51.15123 | 1.59505 | 28388 ft | 421 kts | 97° |
| 2026-05-05 20:28 | 51.14895 | 1.64163 | 28798 ft | 423 kts | 97° |
| 2026-05-05 20:29 | 51.14664 | 1.68841 | 29130 ft | 426 kts | 97° |
| 2026-05-05 20:29 | 51.14429 | 1.73549 | 29487 ft | 429 kts | 97° |
| 2026-05-05 20:29 | 51.14191 | 1.78292 | 29859 ft | 430 kts | 97° |
| 2026-05-05 20:29 | 51.13950 | 1.83047 | 30142 ft | 434 kts | 97° |
| 2026-05-05 20:30 | 51.13704 | 1.87849 | 30405 ft | 436 kts | 97° |
| 2026-05-05 20:30 | 51.13458 | 1.92656 | 30811 ft | 434 kts | 97° |
| 2026-05-05 20:30 | 51.13209 | 1.97457 | 30999 ft | 437 kts | 97° |
| 2026-05-05 20:30 | 51.12956 | 2.02290 | 31274 ft | 438 kts | 97° |
| 2026-05-05 20:31 | 51.12697 | 2.07144 | 31428 ft | 442 kts | 97° |
| 2026-05-05 20:31 | 51.12436 | 2.12029 | 31619 ft | 444 kts | 97° |
| 2026-05-05 20:31 | 51.12173 | 2.16926 | 31930 ft | 444 kts | 98° |
| 2026-05-05 20:31 | 51.11908 | 2.21820 | 32227 ft | 443 kts | 98° |
| 2026-05-05 20:32 | 51.11642 | 2.26710 | 32498 ft | 443 kts | 98° |
| 2026-05-05 20:32 | 51.11373 | 2.31594 | 32766 ft | 443 kts | 98° |
| 2026-05-05 20:32 | 51.11101 | 2.36499 | 33027 ft | 444 kts | 98° |
| 2026-05-05 20:32 | 51.10828 | 2.41381 | 33317 ft | 443 kts | 98° |
| 2026-05-05 20:33 | 51.10558 | 2.46190 | 33609 ft | 442 kts | 98° |
| 2026-05-05 20:33 | 51.10281 | 2.51067 | 33878 ft | 442 kts | 98° |
| 2026-05-05 20:33 | 51.10003 | 2.55935 | 34118 ft | 442 kts | 98° |
| 2026-05-05 20:33 | 51.09722 | 2.60809 | 34345 ft | 442 kts | 98° |
| 2026-05-05 20:34 | 51.09337 | 2.65648 | 34524 ft | 439 kts | 106° |
| 2026-05-05 20:34 | 51.08589 | 2.70351 | 34761 ft | 437 kts | 109° |
| 2026-05-05 20:34 | 51.07740 | 2.74997 | 35000 ft | 437 kts | 110° |
| 2026-05-05 20:34 | 51.06880 | 2.79634 | 35210 ft | 437 kts | 110° |
| 2026-05-05 20:35 | 51.06026 | 2.84267 | 35419 ft | 437 kts | 110° |
| 2026-05-05 20:35 | 51.05179 | 2.88910 | 35604 ft | 438 kts | 110° |
| 2026-05-05 20:35 | 51.04331 | 2.93559 | 35800 ft | 438 kts | 110° |
| 2026-05-05 20:35 | 51.03482 | 2.98217 | 36024 ft | 438 kts | 110° |
| 2026-05-05 20:36 | 51.02921 | 3.01291 | 36158 ft | 438 kts | 110° |
| 2026-05-05 20:36 | 51.02325 | 3.04552 | 36302 ft | 438 kts | 110° |
| 2026-05-05 20:36 | 51.01462 | 3.09258 | 36504 ft | 438 kts | 110° |
| 2026-05-05 20:37 | 51.00619 | 3.13840 | 36694 ft | 438 kts | 110° |
| 2026-05-05 20:37 | 50.99764 | 3.18473 | 36912 ft | 435 kts | 110° |
| 2026-05-05 20:37 | 50.98914 | 3.23071 | 37107 ft | 436 kts | 110° |
| 2026-05-05 20:38 | 50.97179 | 3.32403 | 36933 ft | 448 kts | 110° |
| 2026-05-05 20:38 | 50.95389 | 3.41999 | 36927 ft | 457 kts | 110° |
| 2026-05-05 20:39 | 50.94020 | 3.49311 | 36935 ft | 462 kts | 110° |
| 2026-05-05 20:39 | 50.92167 | 3.59152 | 36921 ft | 468 kts | 110° |
| 2026-05-05 20:40 | 50.90411 | 3.68397 | 36928 ft | 469 kts | 110° |
| 2026-05-05 20:40 | 50.88543 | 3.78044 | 36913 ft | 469 kts | 110° |
| 2026-05-05 20:41 | 50.86740 | 3.87321 | 36922 ft | 469 kts | 110° |
| 2026-05-05 20:41 | 50.84819 | 3.97172 | 36916 ft | 469 kts | 110° |
| 2026-05-05 20:42 | 50.82902 | 4.06958 | 36915 ft | 469 kts | 110° |
| 2026-05-05 20:42 | 50.80975 | 4.16742 | 36912 ft | 469 kts | 111° |
| 2026-05-05 20:43 | 50.79027 | 4.26580 | 36915 ft | 468 kts | 111° |
| 2026-05-05 20:43 | 50.77075 | 4.36387 | 36919 ft | 468 kts | 111° |
| 2026-05-05 20:44 | 50.75113 | 4.46193 | 36910 ft | 468 kts | 111° |
| 2026-05-05 20:44 | 50.73149 | 4.55968 | 36913 ft | 468 kts | 111° |
| 2026-05-05 20:45 | 50.70248 | 4.70684 | 36907 ft | 468 kts | 110° |
| 2026-05-05 20:45 | 50.68351 | 4.80524 | 36905 ft | 468 kts | 111° |
| 2026-05-05 20:46 | 50.66440 | 4.90320 | 36906 ft | 468 kts | 111° |
| 2026-05-05 20:46 | 50.64465 | 5.00102 | 36901 ft | 468 kts | 112° |
| 2026-05-05 20:47 | 50.62442 | 5.09852 | 36903 ft | 468 kts | 112° |
| 2026-05-05 20:47 | 50.60428 | 5.19591 | 36904 ft | 467 kts | 112° |
| 2026-05-05 20:48 | 50.58407 | 5.29332 | 36901 ft | 468 kts | 112° |
| 2026-05-05 20:48 | 50.56384 | 5.39026 | 36893 ft | 468 kts | 112° |
| 2026-05-05 20:49 | 50.54357 | 5.48700 | 36898 ft | 468 kts | 112° |
| 2026-05-05 20:49 | 50.52315 | 5.58398 | 36878 ft | 468 kts | 112° |
| 2026-05-05 20:50 | 50.50640 | 5.66477 | 36901 ft | 468 kts | 111° |
| 2026-05-05 20:50 | 50.48538 | 5.77968 | 36865 ft | 469 kts | 110° |
| 2026-05-05 20:51 | 50.47635 | 5.82860 | 36373 ft | 461 kts | 111° |
| 2026-05-05 20:51 | 50.46833 | 5.87166 | 36223 ft | 446 kts | 111° |
| 2026-05-05 20:51 | 50.45971 | 5.91756 | 35895 ft | 436 kts | 112° |
| 2026-05-05 20:51 | 50.45110 | 5.96300 | 35450 ft | 433 kts | 112° |
| 2026-05-05 20:52 | 50.44247 | 6.00827 | 34973 ft | 434 kts | 112° |
| 2026-05-05 20:52 | 50.43377 | 6.05375 | 34492 ft | 438 kts | 112° |
| 2026-05-05 20:52 | 50.42493 | 6.09993 | 34010 ft | 443 kts | 112° |
| 2026-05-05 20:52 | 50.41606 | 6.14632 | 33491 ft | 445 kts | 112° |
| 2026-05-05 20:53 | 50.40723 | 6.19242 | 32948 ft | 445 kts | 112° |
| 2026-05-05 20:53 | 50.39851 | 6.23787 | 32408 ft | 444 kts | 112° |
| 2026-05-05 20:53 | 50.38959 | 6.28422 | 31899 ft | 444 kts | 111° |
| 2026-05-05 20:53 | 50.38053 | 6.33121 | 31352 ft | 445 kts | 111° |
| 2026-05-05 20:54 | 50.37169 | 6.37701 | 30855 ft | 445 kts | 111° |
| 2026-05-05 20:54 | 50.36281 | 6.42356 | 30347 ft | 446 kts | 110° |
| 2026-05-05 20:54 | 50.35684 | 6.47143 | 29821 ft | 451 kts | 98° |
| 2026-05-05 20:54 | 50.35513 | 6.52077 | 29246 ft | 455 kts | 95° |
| 2026-05-05 20:55 | 50.35358 | 6.57037 | 28696 ft | 456 kts | 96° |
| 2026-05-05 20:55 | 50.35123 | 6.61996 | 27883 ft | 456 kts | 97° |
| 2026-05-05 20:55 | 50.34830 | 6.66961 | 26624 ft | 460 kts | 98° |
| 2026-05-05 20:55 | 50.34512 | 6.71954 | 25360 ft | 463 kts | 98° |
| 2026-05-05 20:56 | 50.34191 | 6.76898 | 24847 ft | 449 kts | 98° |
| 2026-05-05 20:56 | 50.33891 | 6.81707 | 24202 ft | 439 kts | 98° |
| 2026-05-05 20:56 | 50.33582 | 6.86405 | 23708 ft | 426 kts | 101° |
| 2026-05-05 20:56 | 50.32791 | 6.90752 | 23083 ft | 411 kts | 117° |
| 2026-05-05 20:57 | 50.31483 | 6.94634 | 22583 ft | 398 kts | 122° |
| 2026-05-05 20:57 | 50.30127 | 6.98368 | 22028 ft | 391 kts | 122° |
| 2026-05-05 20:57 | 50.28802 | 7.02061 | 21511 ft | 390 kts | 120° |
| 2026-05-05 20:57 | 50.27624 | 7.05853 | 21008 ft | 392 kts | 116° |
| 2026-05-05 20:58 | 50.26889 | 7.08425 | 20661 ft | 392 kts | 116° |
| 2026-05-05 20:58 | 50.25401 | 7.13622 | 19960 ft | 390 kts | 116° |
| 2026-05-05 20:58 | 50.24653 | 7.16168 | 19630 ft | 388 kts | 117° |
| 2026-05-05 20:58 | 50.23520 | 7.19978 | 19103 ft | 386 kts | 117° |
| 2026-05-05 20:59 | 50.22387 | 7.23760 | 18599 ft | 383 kts | 117° |
| 2026-05-05 20:59 | 50.21257 | 7.27519 | 18086 ft | 381 kts | 117° |
| 2026-05-05 20:59 | 50.20135 | 7.31246 | 17589 ft | 378 kts | 117° |
| 2026-05-05 20:59 | 50.19038 | 7.34956 | 17043 ft | 376 kts | 115° |
| 2026-05-05 21:00 | 50.18122 | 7.38749 | 16577 ft | 372 kts | 112° |
| 2026-05-05 21:00 | 50.17281 | 7.42558 | 16069 ft | 369 kts | 112° |
| 2026-05-05 21:00 | 50.16432 | 7.46310 | 15588 ft | 366 kts | 112° |
| 2026-05-05 21:00 | 50.15554 | 7.50028 | 15100 ft | 364 kts | 113° |
| 2026-05-05 21:01 | 50.14674 | 7.53704 | 14625 ft | 360 kts | 113° |
| 2026-05-05 21:01 | 50.13809 | 7.57301 | 14151 ft | 353 kts | 113° |
| 2026-05-05 21:01 | 50.12957 | 7.60846 | 13688 ft | 346 kts | 113° |
| 2026-05-05 21:01 | 50.12120 | 7.64327 | 13345 ft | 336 kts | 113° |
| 2026-05-05 21:02 | 50.11305 | 7.67618 | 13352 ft | 316 kts | 118° |
| 2026-05-05 21:02 | 50.10241 | 7.70492 | 13300 ft | 300 kts | 120° |
| 2026-05-05 21:02 | 50.09654 | 7.73603 | 13259 ft | 306 kts | 94° |
| 2026-05-05 21:02 | 50.09844 | 7.76939 | 13284 ft | 312 kts | 83° |
| 2026-05-05 21:03 | 50.10179 | 7.80292 | 13301 ft | 314 kts | 83° |
| 2026-05-05 21:03 | 50.10511 | 7.83634 | 13633 ft | 304 kts | 83° |
| 2026-05-05 21:03 | 50.10842 | 7.86966 | 13918 ft | 323 kts | 83° |
| 2026-05-05 21:03 | 50.11192 | 7.90519 | 12896 ft | 340 kts | 83° |
| 2026-05-05 21:04 | 50.11552 | 7.94235 | 11800 ft | 353 kts | 83° |
| 2026-05-05 21:04 | 50.11913 | 7.98075 | 10954 ft | 358 kts | 83° |
| 2026-05-05 21:04 | 50.12260 | 8.01807 | 10672 ft | 343 kts | 83° |
| 2026-05-05 21:04 | 50.12590 | 8.05351 | 10649 ft | 322 kts | 83° |
| 2026-05-05 21:05 | 50.12907 | 8.08746 | 10397 ft | 311 kts | 83° |
| 2026-05-05 21:05 | 50.13217 | 8.12028 | 10158 ft | 302 kts | 83° |
| 2026-05-05 21:05 | 50.13514 | 8.15225 | 9881 ft | 295 kts | 83° |
| 2026-05-05 21:05 | 50.13808 | 8.18367 | 9575 ft | 290 kts | 83° |
| 2026-05-05 21:06 | 50.14098 | 8.21449 | 9279 ft | 286 kts | 83° |
| 2026-05-05 21:06 | 50.14386 | 8.24514 | 9000 ft | 285 kts | 83° |
| 2026-05-05 21:06 | 50.14681 | 8.27547 | 8962 ft | 280 kts | 81° |
| 2026-05-05 21:06 | 50.15106 | 8.30560 | 8951 ft | 287 kts | 78° |
| 2026-05-05 21:07 | 50.15560 | 8.33595 | 8952 ft | 289 kts | 78° |
| 2026-05-05 21:07 | 50.16016 | 8.36646 | 8962 ft | 289 kts | 78° |
| 2026-05-05 21:07 | 50.16475 | 8.39714 | 8876 ft | 289 kts | 78° |
| 2026-05-05 21:07 | 50.16929 | 8.42749 | 8866 ft | 287 kts | 78° |
| 2026-05-05 21:08 | 50.17383 | 8.45795 | 8864 ft | 288 kts | 78° |
| 2026-05-05 21:08 | 50.17837 | 8.48845 | 8867 ft | 288 kts | 78° |
| 2026-05-05 21:08 | 50.18286 | 8.51857 | 8866 ft | 288 kts | 78° |
| 2026-05-05 21:08 | 50.18740 | 8.54906 | 8866 ft | 289 kts | 78° |
| 2026-05-05 21:09 | 50.19192 | 8.57948 | 8869 ft | 288 kts | 78° |
| 2026-05-05 21:09 | 50.19647 | 8.61006 | 8862 ft | 289 kts | 78° |
| 2026-05-05 21:09 | 50.20098 | 8.64055 | 8866 ft | 288 kts | 78° |
| 2026-05-05 21:09 | 50.20550 | 8.67123 | 8718 ft | 291 kts | 78° |
| 2026-05-05 21:10 | 50.21006 | 8.70204 | 8438 ft | 291 kts | 78° |
| 2026-05-05 21:10 | 50.21459 | 8.73268 | 8157 ft | 288 kts | 78° |
| 2026-05-05 21:10 | 50.21911 | 8.76300 | 7861 ft | 286 kts | 78° |
| 2026-05-05 21:10 | 50.22362 | 8.79311 | 7578 ft | 283 kts | 78° |
| 2026-05-05 21:11 | 50.22811 | 8.82295 | 7302 ft | 281 kts | 78° |
| 2026-05-05 21:11 | 50.23259 | 8.85258 | 7024 ft | 280 kts | 78° |
| 2026-05-05 21:11 | 50.23709 | 8.88223 | 6756 ft | 279 kts | 78° |
| 2026-05-05 21:11 | 50.24160 | 8.91168 | 6497 ft | 278 kts | 78° |
| 2026-05-05 21:12 | 50.24609 | 8.94103 | 6241 ft | 277 kts | 78° |
| 2026-05-05 21:12 | 50.25057 | 8.97022 | 6033 ft | 273 kts | 78° |
| 2026-05-05 21:12 | 50.25494 | 8.99885 | 6079 ft | 272 kts | 79° |
| 2026-05-05 21:12 | 50.25732 | 9.02826 | 6095 ft | 273 kts | 92° |
| 2026-05-05 21:13 | 50.25682 | 9.05759 | 6109 ft | 274 kts | 95° |
| 2026-05-05 21:13 | 50.25232 | 9.08642 | 6102 ft | 270 kts | 121° |
| 2026-05-05 21:13 | 50.24002 | 9.10729 | 6096 ft | 265 kts | 150° |
| 2026-05-05 21:13 | 50.22322 | 9.11794 | 6044 ft | 259 kts | 164° |
| 2026-05-05 21:14 | 50.20623 | 9.12605 | 6026 ft | 253 kts | 168° |
| 2026-05-05 21:14 | 50.18888 | 9.12544 | 6043 ft | 251 kts | 198° |
| 2026-05-05 21:14 | 50.17443 | 9.11066 | 6044 ft | 253 kts | 229° |
| 2026-05-05 21:14 | 50.16485 | 9.08743 | 6067 ft | 256 kts | 238° |
| 2026-05-05 21:15 | 50.15574 | 9.06351 | 6029 ft | 254 kts | 237° |
| 2026-05-05 21:15 | 50.14666 | 9.03971 | 5928 ft | 257 kts | 238° |
| 2026-05-05 21:15 | 50.13780 | 9.01555 | 5747 ft | 257 kts | 244° |
| 2026-05-05 21:15 | 50.13169 | 8.98943 | 5579 ft | 256 kts | 250° |
| 2026-05-05 21:16 | 50.12600 | 8.96320 | 5374 ft | 256 kts | 249° |
| 2026-05-05 21:16 | 50.12149 | 8.93611 | 5012 ft | 260 kts | 257° |
| 2026-05-05 21:16 | 50.11678 | 8.90905 | 4645 ft | 258 kts | 248° |
| 2026-05-05 21:16 | 50.10984 | 8.88338 | 4305 ft | 257 kts | 246° |
| 2026-05-05 21:17 | 50.10380 | 8.85734 | 3965 ft | 255 kts | 251° |
| 2026-05-05 21:17 | 50.09825 | 8.83163 | 3635 ft | 252 kts | 249° |
| 2026-05-05 21:17 | 50.09209 | 8.80682 | 3342 ft | 236 kts | 248° |
| 2026-05-05 21:17 | 50.08664 | 8.78382 | 3051 ft | 215 kts | 249° |
| 2026-05-05 21:18 | 50.08186 | 8.76301 | 2746 ft | 195 kts | 249° |
| 2026-05-05 21:18 | 50.07727 | 8.74378 | 2480 ft | 186 kts | 249° |
| 2026-05-05 21:18 | 50.07279 | 8.72486 | 2241 ft | 187 kts | 250° |
| 2026-05-05 21:18 | 50.06842 | 8.70627 | 1990 ft | 180 kts | 250° |
| 2026-05-05 21:19 | 50.06427 | 8.68877 | 1780 ft | 161 kts | 250° |
| 2026-05-05 21:19 | 50.06062 | 8.67337 | 1556 ft | 145 kts | 250° |
| 2026-05-05 21:19 | 50.05720 | 8.65893 | 1359 ft | 142 kts | 250° |
| 2026-05-05 21:19 | 50.05377 | 8.64443 | 1181 ft | 144 kts | 250° |
| 2026-05-05 21:20 | 50.05029 | 8.62977 | 990 ft | 144 kts | 250° |
| 2026-05-05 21:20 | 50.04681 | 8.61516 | 792 ft | 144 kts | 251° |
| 2026-05-05 21:20 | 50.04339 | 8.60074 | 602 ft | 144 kts | 250° |
| 2026-05-05 21:20 | 50.03988 | 8.58613 | 411 ft | 143 kts | 251° |
| 2026-05-05 21:21 | 50.03684 | 8.57245 | 357 ft | 121 kts | 251° |
| 2026-05-05 21:21 | 50.03416 | 8.56137 | 351 ft | 81 kts | 250° |
| 2026-05-05 21:21 | 50.03311 | 8.55508 | 342 ft | 41 kts | 276° |
| 2026-05-05 21:21 | 50.03330 | 8.55328 | 342 ft | 0 kts | 279° |
| 2026-05-05 21:22 | 50.03331 | 8.55313 | 341 ft | 3 kts | 279° |
| 2026-05-05 21:22 | 50.03336 | 8.55270 | 339 ft | 5 kts | 279° |
| 2026-05-05 21:22 | 50.03349 | 8.55205 | 339 ft | 7 kts | 298° |